📊 Raw Sensor Data
Showing records 37776 to 37800 of 84,919 total
| ID | Distance (ft) | Battery V | Battery A | Int Temp (°F) | Int Humid (%) | Ext Temp (°F) | Solar V | RSSI | SNR | Time Stamp |
|---|---|---|---|---|---|---|---|---|---|---|
| 47156 | 15.2 | 3.72 | -5 | 64 | 52 | 64 | 0.00 | -71 | 8 | 07/23/2025 09:00 PM |
| 47155 | 15.2 | 3.71 | -5 | 66 | 53 | 64 | 0.10 | -71 | 7 | 07/23/2025 08:45 PM |
| 47154 | 15.2 | 3.71 | -5 | 68 | 55 | 66 | 1.40 | -71 | 8 | 07/23/2025 08:30 PM |
| 47153 | 15.2 | 3.70 | -5 | 73 | 53 | 68 | 4.50 | -72 | 8 | 07/23/2025 08:15 PM |
| 47152 | 15.3 | 3.73 | 0 | 77 | 52 | 71 | 4.50 | -71 | 8 | 07/23/2025 08:00 PM |
| 47151 | 15.3 | 3.88 | 0 | 80 | 52 | 73 | 4.50 | -70 | 8 | 07/23/2025 07:45 PM |
| 47150 | 15.3 | 3.89 | 7 | 83 | 51 | 75 | 4.50 | -71 | 8 | 07/23/2025 07:30 PM |
| 47149 | 15.3 | 3.97 | -9 | 84 | 51 | 77 | 4.50 | -72 | 7 | 07/23/2025 07:15 PM |
| 47148 | 15.3 | 3.80 | 0 | 86 | 50 | 78 | 5.10 | -72 | 8 | 07/23/2025 07:00 PM |
| 47147 | 15.3 | 3.90 | 0 | 87 | 50 | 79 | 5.10 | -71 | 7 | 07/23/2025 06:45 PM |
| 47146 | 15.3 | 3.80 | 0 | 89 | 49 | 80 | 5.10 | -71 | 7 | 07/23/2025 06:30 PM |
| 47145 | 15.3 | 3.80 | 0 | 90 | 49 | 81 | 5.10 | -71 | 8 | 07/23/2025 06:15 PM |
| 47144 | 15.4 | 3.81 | 0 | 91 | 48 | 82 | 5.10 | -71 | 7 | 07/23/2025 06:00 PM |
| 47143 | 15.3 | 3.81 | 0 | 91 | 48 | 81 | 5.10 | -70 | 8 | 07/23/2025 05:45 PM |
| 47142 | 15.3 | 3.81 | 0 | 92 | 48 | 82 | 5.10 | -71 | 8 | 07/23/2025 05:30 PM |
| 47141 | 15.3 | 3.92 | 0 | 93 | 47 | 83 | 5.10 | -71 | 7 | 07/23/2025 05:15 PM |
| 47140 | 15.4 | 3.95 | 0 | 94 | 46 | 85 | 5.10 | -69 | 8 | 07/23/2025 05:00 PM |
| 47139 | 15.4 | 3.81 | 0 | 94 | 46 | 82 | 5.10 | -72 | 8 | 07/23/2025 04:45 PM |
| 47138 | 15.4 | 3.81 | 0 | 94 | 45 | 83 | 5.10 | -71 | 8 | 07/23/2025 04:30 PM |
| 47137 | 15.4 | 3.81 | 0 | 95 | 44 | 85 | 5.10 | -72 | 7 | 07/23/2025 04:15 PM |
| 47136 | 15.4 | 3.81 | 0 | 94 | 44 | 85 | 5.10 | -73 | 8 | 07/23/2025 04:00 PM |
| 47135 | 15.4 | 3.97 | 0 | 94 | 43 | 85 | 5.10 | -71 | 8 | 07/23/2025 03:45 PM |
| 47134 | 15.4 | 3.81 | 0 | 94 | 43 | 85 | 5.10 | -73 | 7 | 07/23/2025 03:30 PM |
| 47133 | 15.3 | 3.81 | 0 | 93 | 43 | 86 | 5.10 | -69 | 7 | 07/23/2025 03:15 PM |
| 47132 | 15.3 | 3.96 | 0 | 92 | 42 | 82 | 5.10 | -70 | 8 | 07/23/2025 03:00 PM |